sensor_id;sensor_type;location;lat;lon;timestamp;P1;durP1;ratioP1;P2;durP2;ratioP2
58657;SDS011;44428;45.630;13.786;2022-10-16T00:00:41;40.10;;;30.40;;
58657;SDS011;44428;45.630;13.786;2022-10-16T00:03:07;37.03;;;29.88;;
58657;SDS011;44428;45.630;13.786;2022-10-16T00:05:38;34.72;;;30.50;;
58657;SDS011;44428;45.630;13.786;2022-10-16T00:08:06;35.45;;;29.13;;
58657;SDS011;44428;45.630;13.786;2022-10-16T00:10:33;36.05;;;28.77;;
58657;SDS011;44428;45.630;13.786;2022-10-16T00:12:59;33.78;;;29.13;;
58657;SDS011;44428;45.630;13.786;2022-10-16T00:15:25;34.28;;;30.55;;
58657;SDS011;44428;45.630;13.786;2022-10-16T00:17:51;39.33;;;31.23;;
58657;SDS011;44428;45.630;13.786;2022-10-16T00:20:17;39.63;;;30.42;;
58657;SDS011;44428;45.630;13.786;2022-10-16T00:23:01;38.83;;;31.35;;
58657;SDS011;44428;45.630;13.786;2022-10-16T00:25:28;37.97;;;29.42;;
58657;SDS011;44428;45.630;13.786;2022-10-16T00:27:54;34.72;;;28.90;;
58657;SDS011;44428;45.630;13.786;2022-10-16T00:30:20;35.97;;;29.67;;
58657;SDS011;44428;45.630;13.786;2022-10-16T00:32:46;34.60;;;28.23;;
58657;SDS011;44428;45.630;13.786;2022-10-16T00:35:11;34.13;;;29.27;;
58657;SDS011;44428;45.630;13.786;2022-10-16T00:37:37;38.00;;;28.83;;
58657;SDS011;44428;45.630;13.786;2022-10-16T00:40:03;36.60;;;30.10;;
58657;SDS011;44428;45.630;13.786;2022-10-16T00:42:29;38.80;;;28.58;;
58657;SDS011;44428;45.630;13.786;2022-10-16T00:44:55;33.55;;;28.38;;
58657;SDS011;44428;45.630;13.786;2022-10-16T00:47:29;34.95;;;29.15;;
58657;SDS011;44428;45.630;13.786;2022-10-16T00:50:21;35.00;;;30.17;;
58657;SDS011;44428;45.630;13.786;2022-10-16T00:52:49;33.72;;;27.95;;
58657;SDS011;44428;45.630;13.786;2022-10-16T00:55:16;33.53;;;28.10;;
58657;SDS011;44428;45.630;13.786;2022-10-16T00:57:43;32.70;;;27.40;;
58657;SDS011;44428;45.630;13.786;2022-10-16T01:00:12;33.65;;;28.23;;
58657;SDS011;44428;45.630;13.786;2022-10-16T01:02:41;35.45;;;28.65;;
58657;SDS011;44428;45.630;13.786;2022-10-16T01:05:07;35.88;;;28.70;;
58657;SDS011;44428;45.630;13.786;2022-10-16T01:13:03;35.22;;;28.23;;
58657;SDS011;44428;45.630;13.786;2022-10-16T01:20:45;35.13;;;29.30;;
58657;SDS011;44428;45.630;13.786;2022-10-16T01:29:04;32.90;;;28.10;;
58657;SDS011;44428;45.630;13.786;2022-10-16T01:31:35;36.70;;;29.35;;
58657;SDS011;44428;45.630;13.786;2022-10-16T01:34:06;34.17;;;29.13;;
58657;SDS011;44428;45.630;13.786;2022-10-16T01:36:42;37.10;;;29.65;;
58657;SDS011;44428;45.630;13.786;2022-10-16T01:39:13;34.35;;;27.67;;
58657;SDS011;44428;45.630;13.786;2022-10-16T01:41:42;34.13;;;28.25;;
58657;SDS011;44428;45.630;13.786;2022-10-16T01:44:29;31.17;;;27.55;;
58657;SDS011;44428;45.630;13.786;2022-10-16T01:46:58;35.03;;;28.98;;
58657;SDS011;44428;45.630;13.786;2022-10-16T01:49:26;36.78;;;28.85;;
58657;SDS011;44428;45.630;13.786;2022-10-16T01:51:55;35.00;;;29.60;;
58657;SDS011;44428;45.630;13.786;2022-10-16T01:54:25;34.65;;;28.77;;
58657;SDS011;44428;45.630;13.786;2022-10-16T01:56:53;35.70;;;29.40;;
58657;SDS011;44428;45.630;13.786;2022-10-16T01:59:21;36.63;;;29.42;;
58657;SDS011;44428;45.630;13.786;2022-10-16T02:01:52;34.45;;;30.23;;
58657;SDS011;44428;45.630;13.786;2022-10-16T02:04:29;39.42;;;30.40;;
58657;SDS011;44428;45.630;13.786;2022-10-16T02:06:58;35.38;;;29.48;;
58657;SDS011;44428;45.630;13.786;2022-10-16T02:09:24;36.05;;;29.23;;
58657;SDS011;44428;45.630;13.786;2022-10-16T02:11:52;34.67;;;28.77;;
58657;SDS011;44428;45.630;13.786;2022-10-16T02:14:20;33.90;;;28.42;;
58657;SDS011;44428;45.630;13.786;2022-10-16T02:16:50;35.40;;;29.55;;
58657;SDS011;44428;45.630;13.786;2022-10-16T02:19:16;33.22;;;28.08;;
58657;SDS011;44428;45.630;13.786;2022-10-16T02:21:54;33.50;;;28.70;;
58657;SDS011;44428;45.630;13.786;2022-10-16T02:29:41;36.47;;;28.00;;
58657;SDS011;44428;45.630;13.786;2022-10-16T02:32:14;36.15;;;30.15;;
58657;SDS011;44428;45.630;13.786;2022-10-16T02:34:45;35.78;;;30.63;;
58657;SDS011;44428;45.630;13.786;2022-10-16T02:37:13;36.60;;;29.33;;
58657;SDS011;44428;45.630;13.786;2022-10-16T02:39:40;36.10;;;29.23;;
58657;SDS011;44428;45.630;13.786;2022-10-16T02:42:10;36.90;;;30.55;;
58657;SDS011;44428;45.630;13.786;2022-10-16T02:44:38;36.95;;;29.33;;
58657;SDS011;44428;45.630;13.786;2022-10-16T02:47:03;33.55;;;27.98;;
58657;SDS011;44428;45.630;13.786;2022-10-16T02:49:29;34.75;;;28.08;;
58657;SDS011;44428;45.630;13.786;2022-10-16T02:51:55;35.72;;;29.20;;
58657;SDS011;44428;45.630;13.786;2022-10-16T02:54:20;39.08;;;30.05;;
58657;SDS011;44428;45.630;13.786;2022-10-16T02:56:46;37.40;;;29.60;;
58657;SDS011;44428;45.630;13.786;2022-10-16T02:59:12;34.70;;;28.70;;
58657;SDS011;44428;45.630;13.786;2022-10-16T03:01:37;35.67;;;27.90;;
58657;SDS011;44428;45.630;13.786;2022-10-16T03:04:03;32.72;;;27.85;;
58657;SDS011;44428;45.630;13.786;2022-10-16T03:06:29;34.42;;;29.85;;
58657;SDS011;44428;45.630;13.786;2022-10-16T03:08:55;35.88;;;28.88;;
58657;SDS011;44428;45.630;13.786;2022-10-16T03:11:20;36.47;;;29.38;;
58657;SDS011;44428;45.630;13.786;2022-10-16T03:13:46;39.13;;;28.90;;
58657;SDS011;44428;45.630;13.786;2022-10-16T03:16:12;40.90;;;30.63;;
58657;SDS011;44428;45.630;13.786;2022-10-16T03:18:37;37.65;;;30.02;;
58657;SDS011;44428;45.630;13.786;2022-10-16T03:21:03;39.33;;;29.63;;
58657;SDS011;44428;45.630;13.786;2022-10-16T03:23:29;38.38;;;31.38;;
58657;SDS011;44428;45.630;13.786;2022-10-16T03:25:54;40.42;;;30.92;;
58657;SDS011;44428;45.630;13.786;2022-10-16T03:28:20;37.97;;;31.15;;
58657;SDS011;44428;45.630;13.786;2022-10-16T03:30:46;37.38;;;30.40;;
58657;SDS011;44428;45.630;13.786;2022-10-16T03:33:11;35.67;;;29.65;;
58657;SDS011;44428;45.630;13.786;2022-10-16T03:35:37;41.13;;;31.70;;
58657;SDS011;44428;45.630;13.786;2022-10-16T03:38:03;37.13;;;29.20;;
58657;SDS011;44428;45.630;13.786;2022-10-16T03:40:29;40.47;;;31.40;;
58657;SDS011;44428;45.630;13.786;2022-10-16T03:42:57;37.17;;;30.75;;
58657;SDS011;44428;45.630;13.786;2022-10-16T03:45:23;38.35;;;31.02;;
58657;SDS011;44428;45.630;13.786;2022-10-16T03:47:49;36.60;;;30.10;;
58657;SDS011;44428;45.630;13.786;2022-10-16T03:50:15;38.15;;;31.23;;
58657;SDS011;44428;45.630;13.786;2022-10-16T03:52:41;37.30;;;31.50;;
58657;SDS011;44428;45.630;13.786;2022-10-16T03:55:07;39.33;;;32.05;;
58657;SDS011;44428;45.630;13.786;2022-10-16T03:57:33;39.28;;;31.25;;
58657;SDS011;44428;45.630;13.786;2022-10-16T03:59:59;37.10;;;31.30;;
58657;SDS011;44428;45.630;13.786;2022-10-16T04:02:24;39.30;;;30.88;;
58657;SDS011;44428;45.630;13.786;2022-10-16T04:04:50;37.35;;;31.75;;
58657;SDS011;44428;45.630;13.786;2022-10-16T04:07:16;39.67;;;33.42;;
58657;SDS011;44428;45.630;13.786;2022-10-16T04:09:42;41.53;;;32.15;;
58657;SDS011;44428;45.630;13.786;2022-10-16T04:12:07;34.85;;;30.50;;
58657;SDS011;44428;45.630;13.786;2022-10-16T04:14:33;37.55;;;31.38;;
58657;SDS011;44428;45.630;13.786;2022-10-16T04:16:59;38.25;;;32.10;;
58657;SDS011;44428;45.630;13.786;2022-10-16T04:19:25;39.45;;;32.38;;
58657;SDS011;44428;45.630;13.786;2022-10-16T04:21:51;38.45;;;32.08;;
58657;SDS011;44428;45.630;13.786;2022-10-16T04:24:17;38.65;;;30.90;;
58657;SDS011;44428;45.630;13.786;2022-10-16T04:26:43;39.15;;;32.78;;
58657;SDS011;44428;45.630;13.786;2022-10-16T04:29:08;38.15;;;31.05;;
58657;SDS011;44428;45.630;13.786;2022-10-16T04:31:34;40.47;;;33.30;;
58657;SDS011;44428;45.630;13.786;2022-10-16T04:34:00;39.83;;;33.30;;
58657;SDS011;44428;45.630;13.786;2022-10-16T04:36:26;43.05;;;33.42;;
58657;SDS011;44428;45.630;13.786;2022-10-16T04:38:51;38.25;;;32.60;;
58657;SDS011;44428;45.630;13.786;2022-10-16T04:41:17;44.88;;;32.53;;
58657;SDS011;44428;45.630;13.786;2022-10-16T04:43:43;38.90;;;32.78;;
58657;SDS011;44428;45.630;13.786;2022-10-16T04:46:08;38.30;;;31.42;;
58657;SDS011;44428;45.630;13.786;2022-10-16T04:48:35;40.30;;;32.40;;
58657;SDS011;44428;45.630;13.786;2022-10-16T04:51:01;42.50;;;33.33;;
58657;SDS011;44428;45.630;13.786;2022-10-16T04:53:26;36.50;;;30.63;;
58657;SDS011;44428;45.630;13.786;2022-10-16T04:55:52;38.83;;;31.08;;
58657;SDS011;44428;45.630;13.786;2022-10-16T04:58:18;41.63;;;31.98;;
58657;SDS011;44428;45.630;13.786;2022-10-16T05:00:44;40.47;;;33.58;;
58657;SDS011;44428;45.630;13.786;2022-10-16T05:03:12;41.85;;;33.53;;
58657;SDS011;44428;45.630;13.786;2022-10-16T05:05:41;40.58;;;33.03;;
58657;SDS011;44428;45.630;13.786;2022-10-16T05:08:08;44.17;;;33.53;;
58657;SDS011;44428;45.630;13.786;2022-10-16T05:10:34;42.78;;;34.53;;
58657;SDS011;44428;45.630;13.786;2022-10-16T05:13:00;42.78;;;33.97;;
58657;SDS011;44428;45.630;13.786;2022-10-16T05:15:25;44.45;;;35.47;;
58657;SDS011;44428;45.630;13.786;2022-10-16T05:17:54;43.10;;;35.00;;
58657;SDS011;44428;45.630;13.786;2022-10-16T05:20:21;43.45;;;34.47;;
58657;SDS011;44428;45.630;13.786;2022-10-16T05:22:48;41.35;;;34.15;;
58657;SDS011;44428;45.630;13.786;2022-10-16T05:25:13;43.50;;;33.28;;
58657;SDS011;44428;45.630;13.786;2022-10-16T05:27:39;46.53;;;35.83;;
58657;SDS011;44428;45.630;13.786;2022-10-16T05:30:05;45.95;;;33.42;;
58657;SDS011;44428;45.630;13.786;2022-10-16T05:32:31;43.72;;;35.40;;
58657;SDS011;44428;45.630;13.786;2022-10-16T05:34:57;46.42;;;35.78;;
58657;SDS011;44428;45.630;13.786;2022-10-16T05:37:25;44.40;;;35.05;;
58657;SDS011;44428;45.630;13.786;2022-10-16T05:39:52;45.38;;;34.30;;
58657;SDS011;44428;45.630;13.786;2022-10-16T05:42:18;46.80;;;35.63;;
58657;SDS011;44428;45.630;13.786;2022-10-16T05:44:44;46.22;;;34.45;;
58657;SDS011;44428;45.630;13.786;2022-10-16T05:47:10;45.67;;;34.38;;
58657;SDS011;44428;45.630;13.786;2022-10-16T05:49:37;42.40;;;34.58;;
58657;SDS011;44428;45.630;13.786;2022-10-16T05:52:03;42.70;;;34.42;;
58657;SDS011;44428;45.630;13.786;2022-10-16T05:54:29;44.78;;;35.72;;
58657;SDS011;44428;45.630;13.786;2022-10-16T05:56:55;42.30;;;34.60;;
58657;SDS011;44428;45.630;13.786;2022-10-16T05:59:20;41.00;;;33.97;;
58657;SDS011;44428;45.630;13.786;2022-10-16T06:01:46;40.58;;;33.22;;
58657;SDS011;44428;45.630;13.786;2022-10-16T06:04:11;46.40;;;34.03;;
58657;SDS011;44428;45.630;13.786;2022-10-16T06:06:37;41.05;;;32.95;;
58657;SDS011;44428;45.630;13.786;2022-10-16T06:09:03;39.40;;;32.50;;
58657;SDS011;44428;45.630;13.786;2022-10-16T06:11:30;37.70;;;30.63;;
58657;SDS011;44428;45.630;13.786;2022-10-16T06:13:57;37.95;;;31.30;;
58657;SDS011;44428;45.630;13.786;2022-10-16T06:16:25;40.80;;;33.25;;
58657;SDS011;44428;45.630;13.786;2022-10-16T06:18:52;41.47;;;34.75;;
58657;SDS011;44428;45.630;13.786;2022-10-16T06:21:20;42.42;;;32.50;;
58657;SDS011;44428;45.630;13.786;2022-10-16T06:23:47;42.25;;;33.85;;
58657;SDS011;44428;45.630;13.786;2022-10-16T06:26:14;37.58;;;32.55;;
58657;SDS011;44428;45.630;13.786;2022-10-16T06:28:42;42.45;;;35.08;;
58657;SDS011;44428;45.630;13.786;2022-10-16T06:31:09;43.22;;;34.83;;
58657;SDS011;44428;45.630;13.786;2022-10-16T06:33:35;40.50;;;33.40;;
58657;SDS011;44428;45.630;13.786;2022-10-16T06:36:06;42.00;;;35.10;;
58657;SDS011;44428;45.630;13.786;2022-10-16T06:38:34;42.10;;;33.15;;
58657;SDS011;44428;45.630;13.786;2022-10-16T06:41:00;41.90;;;33.67;;
58657;SDS011;44428;45.630;13.786;2022-10-16T06:43:26;41.10;;;32.97;;
58657;SDS011;44428;45.630;13.786;2022-10-16T06:45:56;40.20;;;33.28;;
58657;SDS011;44428;45.630;13.786;2022-10-16T06:48:22;39.20;;;33.15;;
58657;SDS011;44428;45.630;13.786;2022-10-16T06:50:55;41.67;;;32.90;;
58657;SDS011;44428;45.630;13.786;2022-10-16T06:53:21;43.63;;;34.78;;
58657;SDS011;44428;45.630;13.786;2022-10-16T06:55:47;38.95;;;32.53;;
58657;SDS011;44428;45.630;13.786;2022-10-16T06:58:13;36.58;;;32.65;;
58657;SDS011;44428;45.630;13.786;2022-10-16T07:00:38;37.65;;;32.38;;
58657;SDS011;44428;45.630;13.786;2022-10-16T07:03:04;35.38;;;30.52;;
58657;SDS011;44428;45.630;13.786;2022-10-16T07:05:30;36.63;;;30.98;;
58657;SDS011;44428;45.630;13.786;2022-10-16T07:07:55;37.63;;;30.30;;
58657;SDS011;44428;45.630;13.786;2022-10-16T07:10:21;36.38;;;29.67;;
58657;SDS011;44428;45.630;13.786;2022-10-16T07:12:49;33.97;;;28.63;;
58657;SDS011;44428;45.630;13.786;2022-10-16T07:15:15;37.25;;;30.42;;
58657;SDS011;44428;45.630;13.786;2022-10-16T07:17:40;37.63;;;31.60;;
58657;SDS011;44428;45.630;13.786;2022-10-16T07:20:06;34.58;;;30.25;;
58657;SDS011;44428;45.630;13.786;2022-10-16T07:22:32;37.25;;;32.40;;
58657;SDS011;44428;45.630;13.786;2022-10-16T07:24:58;37.78;;;31.98;;
58657;SDS011;44428;45.630;13.786;2022-10-16T07:27:24;36.88;;;31.23;;
58657;SDS011;44428;45.630;13.786;2022-10-16T07:29:50;38.10;;;32.15;;
58657;SDS011;44428;45.630;13.786;2022-10-16T07:32:15;37.28;;;32.00;;
58657;SDS011;44428;45.630;13.786;2022-10-16T07:34:41;35.70;;;31.75;;
58657;SDS011;44428;45.630;13.786;2022-10-16T07:37:07;36.47;;;31.38;;
58657;SDS011;44428;45.630;13.786;2022-10-16T07:39:33;33.33;;;29.48;;
58657;SDS011;44428;45.630;13.786;2022-10-16T07:41:59;33.35;;;29.83;;
58657;SDS011;44428;45.630;13.786;2022-10-16T07:44:24;32.88;;;29.45;;
58657;SDS011;44428;45.630;13.786;2022-10-16T07:46:50;35.60;;;31.02;;
58657;SDS011;44428;45.630;13.786;2022-10-16T07:49:16;33.10;;;29.63;;
58657;SDS011;44428;45.630;13.786;2022-10-16T07:51:41;33.50;;;29.90;;
58657;SDS011;44428;45.630;13.786;2022-10-16T07:54:08;34.42;;;30.83;;
58657;SDS011;44428;45.630;13.786;2022-10-16T07:56:34;33.35;;;30.05;;
58657;SDS011;44428;45.630;13.786;2022-10-16T07:59:00;33.92;;;30.35;;
58657;SDS011;44428;45.630;13.786;2022-10-16T08:01:26;31.42;;;28.08;;
58657;SDS011;44428;45.630;13.786;2022-10-16T08:03:52;33.00;;;29.23;;
58657;SDS011;44428;45.630;13.786;2022-10-16T08:06:19;30.50;;;27.30;;
58657;SDS011;44428;45.630;13.786;2022-10-16T08:08:46;33.13;;;29.60;;
58657;SDS011;44428;45.630;13.786;2022-10-16T08:11:13;33.25;;;29.08;;
58657;SDS011;44428;45.630;13.786;2022-10-16T08:13:40;32.10;;;28.50;;
58657;SDS011;44428;45.630;13.786;2022-10-16T08:16:06;31.88;;;28.70;;
58657;SDS011;44428;45.630;13.786;2022-10-16T08:18:37;32.33;;;29.15;;
58657;SDS011;44428;45.630;13.786;2022-10-16T08:21:05;32.38;;;29.20;;
58657;SDS011;44428;45.630;13.786;2022-10-16T08:23:31;30.95;;;27.83;;
58657;SDS011;44428;45.630;13.786;2022-10-16T08:26:01;29.02;;;26.13;;
58657;SDS011;44428;45.630;13.786;2022-10-16T08:28:29;28.48;;;25.58;;
58657;SDS011;44428;45.630;13.786;2022-10-16T08:30:54;29.13;;;26.05;;
58657;SDS011;44428;45.630;13.786;2022-10-16T08:33:22;29.20;;;26.23;;
58657;SDS011;44428;45.630;13.786;2022-10-16T08:35:54;28.70;;;25.80;;
58657;SDS011;44428;45.630;13.786;2022-10-16T08:38:19;28.38;;;25.63;;
58657;SDS011;44428;45.630;13.786;2022-10-16T08:40:46;28.70;;;25.90;;
58657;SDS011;44428;45.630;13.786;2022-10-16T08:50:55;27.55;;;24.90;;
58657;SDS011;44428;45.630;13.786;2022-10-16T08:53:26;26.73;;;23.98;;
58657;SDS011;44428;45.630;13.786;2022-10-16T08:55:56;27.48;;;24.98;;
58657;SDS011;44428;45.630;13.786;2022-10-16T08:58:27;29.33;;;26.52;;
58657;SDS011;44428;45.630;13.786;2022-10-16T09:00:59;27.88;;;25.17;;
58657;SDS011;44428;45.630;13.786;2022-10-16T09:11:44;30.85;;;28.02;;
58657;SDS011;44428;45.630;13.786;2022-10-16T09:16:55;31.92;;;28.98;;
58657;SDS011;44428;45.630;13.786;2022-10-16T09:19:37;32.72;;;28.85;;
58657;SDS011;44428;45.630;13.786;2022-10-16T09:22:10;31.05;;;27.80;;
58657;SDS011;44428;45.630;13.786;2022-10-16T09:24:41;33.88;;;30.50;;
58657;SDS011;44428;45.630;13.786;2022-10-16T09:27:11;34.10;;;30.65;;
58657;SDS011;44428;45.630;13.786;2022-10-16T09:29:39;34.47;;;28.63;;
58657;SDS011;44428;45.630;13.786;2022-10-16T09:32:15;32.08;;;28.80;;
58657;SDS011;44428;45.630;13.786;2022-10-16T09:34:51;32.17;;;28.88;;
58657;SDS011;44428;45.630;13.786;2022-10-16T09:37:22;32.13;;;28.80;;
58657;SDS011;44428;45.630;13.786;2022-10-16T09:39:50;33.40;;;30.02;;
58657;SDS011;44428;45.630;13.786;2022-10-16T09:42:20;32.33;;;29.13;;
58657;SDS011;44428;45.630;13.786;2022-10-16T09:44:52;32.22;;;28.70;;
58657;SDS011;44428;45.630;13.786;2022-10-16T09:47:22;34.58;;;31.15;;
58657;SDS011;44428;45.630;13.786;2022-10-16T09:52:21;35.90;;;32.13;;
58657;SDS011;44428;45.630;13.786;2022-10-16T09:54:48;35.58;;;31.83;;
58657;SDS011;44428;45.630;13.786;2022-10-16T09:59:50;38.47;;;34.50;;
58657;SDS011;44428;45.630;13.786;2022-10-16T10:02:38;36.33;;;32.72;;
58657;SDS011;44428;45.630;13.786;2022-10-16T10:05:17;38.35;;;34.35;;
58657;SDS011;44428;45.630;13.786;2022-10-16T10:07:52;38.13;;;34.08;;
58657;SDS011;44428;45.630;13.786;2022-10-16T10:10:22;41.08;;;37.10;;
58657;SDS011;44428;45.630;13.786;2022-10-16T10:12:58;39.45;;;35.40;;
58657;SDS011;44428;45.630;13.786;2022-10-16T10:15:24;40.00;;;35.83;;
58657;SDS011;44428;45.630;13.786;2022-10-16T10:17:54;40.30;;;36.23;;
58657;SDS011;44428;45.630;13.786;2022-10-16T10:20:26;40.80;;;36.75;;
58657;SDS011;44428;45.630;13.786;2022-10-16T10:22:53;40.67;;;36.67;;
58657;SDS011;44428;45.630;13.786;2022-10-16T10:35:44;39.28;;;35.20;;
58657;SDS011;44428;45.630;13.786;2022-10-16T10:38:25;37.92;;;34.05;;
58657;SDS011;44428;45.630;13.786;2022-10-16T10:43:49;38.28;;;34.47;;
58657;SDS011;44428;45.630;13.786;2022-10-16T10:49:39;37.17;;;33.38;;
58657;SDS011;44428;45.630;13.786;2022-10-16T11:06:29;37.60;;;33.72;;
58657;SDS011;44428;45.630;13.786;2022-10-16T11:11:32;37.45;;;33.75;;
58657;SDS011;44428;45.630;13.786;2022-10-16T11:16:48;36.67;;;32.75;;
58657;SDS011;44428;45.630;13.786;2022-10-16T11:22:04;37.67;;;33.78;;
58657;SDS011;44428;45.630;13.786;2022-10-16T11:30:25;37.05;;;33.22;;
58657;SDS011;44428;45.630;13.786;2022-10-16T11:38:02;36.30;;;32.78;;
58657;SDS011;44428;45.630;13.786;2022-10-16T11:40:35;38.15;;;34.47;;
58657;SDS011;44428;45.630;13.786;2022-10-16T11:45:42;38.67;;;34.97;;
58657;SDS011;44428;45.630;13.786;2022-10-16T11:48:15;37.55;;;33.75;;
58657;SDS011;44428;45.630;13.786;2022-10-16T11:56:05;34.88;;;31.50;;
58657;SDS011;44428;45.630;13.786;2022-10-16T12:01:26;34.70;;;31.27;;
58657;SDS011;44428;45.630;13.786;2022-10-16T12:09:33;34.47;;;31.08;;
58657;SDS011;44428;45.630;13.786;2022-10-16T12:12:02;34.30;;;30.75;;
58657;SDS011;44428;45.630;13.786;2022-10-16T12:16:55;33.78;;;30.27;;
58657;SDS011;44428;45.630;13.786;2022-10-16T12:19:31;33.75;;;30.38;;
58657;SDS011;44428;45.630;13.786;2022-10-16T12:21:58;34.30;;;30.67;;
58657;SDS011;44428;45.630;13.786;2022-10-16T12:24:39;34.55;;;31.33;;
58657;SDS011;44428;45.630;13.786;2022-10-16T12:30:00;37.65;;;34.10;;
58657;SDS011;44428;45.630;13.786;2022-10-16T12:32:33;38.38;;;34.58;;
58657;SDS011;44428;45.630;13.786;2022-10-16T12:35:05;37.35;;;33.47;;
58657;SDS011;44428;45.630;13.786;2022-10-16T12:37:42;36.90;;;33.28;;
58657;SDS011;44428;45.630;13.786;2022-10-16T12:40:27;38.17;;;34.25;;
58657;SDS011;44428;45.630;13.786;2022-10-16T12:42:56;38.33;;;34.47;;
58657;SDS011;44428;45.630;13.786;2022-10-16T12:45:32;35.88;;;32.33;;
58657;SDS011;44428;45.630;13.786;2022-10-16T12:47:59;36.25;;;32.20;;
58657;SDS011;44428;45.630;13.786;2022-10-16T12:52:58;37.22;;;33.50;;
58657;SDS011;44428;45.630;13.786;2022-10-16T12:55:24;38.58;;;32.17;;
58657;SDS011;44428;45.630;13.786;2022-10-16T13:12:25;38.85;;;34.95;;
58657;SDS011;44428;45.630;13.786;2022-10-16T13:15:09;38.63;;;34.22;;
58657;SDS011;44428;45.630;13.786;2022-10-16T13:23:28;43.17;;;35.13;;
58657;SDS011;44428;45.630;13.786;2022-10-16T13:26:36;39.20;;;35.05;;
58657;SDS011;44428;45.630;13.786;2022-10-16T13:28:59;37.92;;;33.25;;
58657;SDS011;44428;45.630;13.786;2022-10-16T13:31:26;38.85;;;33.97;;
58657;SDS011;44428;45.630;13.786;2022-10-16T13:33:55;39.10;;;34.92;;
58657;SDS011;44428;45.630;13.786;2022-10-16T13:36:34;38.85;;;34.90;;
58657;SDS011;44428;45.630;13.786;2022-10-16T13:39:25;38.63;;;34.60;;
58657;SDS011;44428;45.630;13.786;2022-10-16T13:44:49;42.35;;;34.78;;
58657;SDS011;44428;45.630;13.786;2022-10-16T13:49:45;39.38;;;34.72;;
58657;SDS011;44428;45.630;13.786;2022-10-16T13:52:16;41.38;;;36.00;;
58657;SDS011;44428;45.630;13.786;2022-10-16T13:54:46;39.03;;;34.90;;
58657;SDS011;44428;45.630;13.786;2022-10-16T13:57:15;37.70;;;33.63;;
58657;SDS011;44428;45.630;13.786;2022-10-16T13:59:42;41.08;;;36.78;;
58657;SDS011;44428;45.630;13.786;2022-10-16T14:04:52;39.60;;;35.30;;
58657;SDS011;44428;45.630;13.786;2022-10-16T14:07:29;39.33;;;34.75;;
58657;SDS011;44428;45.630;13.786;2022-10-16T14:10:05;40.83;;;35.80;;
58657;SDS011;44428;45.630;13.786;2022-10-16T14:12:43;39.70;;;34.75;;
58657;SDS011;44428;45.630;13.786;2022-10-16T14:15:16;38.00;;;33.97;;
58657;SDS011;44428;45.630;13.786;2022-10-16T14:17:43;37.72;;;33.58;;
58657;SDS011;44428;45.630;13.786;2022-10-16T14:20:14;41.25;;;35.28;;
58657;SDS011;44428;45.630;13.786;2022-10-16T14:22:41;38.70;;;34.53;;
58657;SDS011;44428;45.630;13.786;2022-10-16T14:27:56;42.05;;;35.83;;
58657;SDS011;44428;45.630;13.786;2022-10-16T14:30:24;42.08;;;36.03;;
58657;SDS011;44428;45.630;13.786;2022-10-16T14:32:54;38.90;;;34.80;;
58657;SDS011;44428;45.630;13.786;2022-10-16T14:35:25;39.03;;;34.83;;
58657;SDS011;44428;45.630;13.786;2022-10-16T14:37:58;39.45;;;35.33;;
58657;SDS011;44428;45.630;13.786;2022-10-16T14:40:27;40.00;;;35.60;;
58657;SDS011;44428;45.630;13.786;2022-10-16T14:42:56;40.72;;;35.08;;
58657;SDS011;44428;45.630;13.786;2022-10-16T14:45:24;44.83;;;34.95;;
58657;SDS011;44428;45.630;13.786;2022-10-16T14:47:53;42.97;;;35.90;;
58657;SDS011;44428;45.630;13.786;2022-10-16T14:50:21;42.65;;;35.60;;
58657;SDS011;44428;45.630;13.786;2022-10-16T14:52:47;38.33;;;34.30;;
58657;SDS011;44428;45.630;13.786;2022-10-16T14:55:13;41.65;;;35.88;;
58657;SDS011;44428;45.630;13.786;2022-10-16T14:57:40;42.05;;;37.22;;
58657;SDS011;44428;45.630;13.786;2022-10-16T15:00:09;41.88;;;37.17;;
58657;SDS011;44428;45.630;13.786;2022-10-16T15:02:40;48.33;;;37.30;;
58657;SDS011;44428;45.630;13.786;2022-10-16T15:05:17;43.75;;;36.25;;
58657;SDS011;44428;45.630;13.786;2022-10-16T15:07:48;42.42;;;36.67;;
58657;SDS011;44428;45.630;13.786;2022-10-16T15:10:15;42.70;;;36.63;;
58657;SDS011;44428;45.630;13.786;2022-10-16T15:12:42;41.90;;;35.78;;
58657;SDS011;44428;45.630;13.786;2022-10-16T15:17:57;43.35;;;36.50;;
58657;SDS011;44428;45.630;13.786;2022-10-16T15:20:29;41.50;;;37.00;;
58657;SDS011;44428;45.630;13.786;2022-10-16T15:23:00;43.53;;;37.03;;
58657;SDS011;44428;45.630;13.786;2022-10-16T15:25:42;40.63;;;35.75;;
58657;SDS011;44428;45.630;13.786;2022-10-16T15:28:15;43.20;;;36.53;;
58657;SDS011;44428;45.630;13.786;2022-10-16T15:30:42;42.67;;;36.22;;
58657;SDS011;44428;45.630;13.786;2022-10-16T15:33:28;46.42;;;36.13;;
58657;SDS011;44428;45.630;13.786;2022-10-16T15:35:58;44.40;;;36.15;;
58657;SDS011;44428;45.630;13.786;2022-10-16T15:38:24;42.58;;;35.67;;
58657;SDS011;44428;45.630;13.786;2022-10-16T15:40:50;46.08;;;38.33;;
58657;SDS011;44428;45.630;13.786;2022-10-16T15:43:16;43.38;;;35.22;;
58657;SDS011;44428;45.630;13.786;2022-10-16T15:45:42;46.83;;;38.50;;
58657;SDS011;44428;45.630;13.786;2022-10-16T15:48:12;42.58;;;37.20;;
58657;SDS011;44428;45.630;13.786;2022-10-16T15:50:41;43.25;;;37.05;;
58657;SDS011;44428;45.630;13.786;2022-10-16T15:53:07;48.42;;;40.25;;
58657;SDS011;44428;45.630;13.786;2022-10-16T15:55:33;44.92;;;37.15;;
58657;SDS011;44428;45.630;13.786;2022-10-16T15:57:59;44.25;;;38.97;;
58657;SDS011;44428;45.630;13.786;2022-10-16T16:00:24;44.42;;;36.53;;
58657;SDS011;44428;45.630;13.786;2022-10-16T16:02:51;48.10;;;39.17;;
58657;SDS011;44428;45.630;13.786;2022-10-16T16:05:18;48.58;;;38.78;;
58657;SDS011;44428;45.630;13.786;2022-10-16T16:07:45;49.10;;;40.83;;
58657;SDS011;44428;45.630;13.786;2022-10-16T16:10:11;46.53;;;38.95;;
58657;SDS011;44428;45.630;13.786;2022-10-16T16:12:37;48.35;;;39.85;;
58657;SDS011;44428;45.630;13.786;2022-10-16T16:15:04;51.20;;;41.28;;
58657;SDS011;44428;45.630;13.786;2022-10-16T16:17:31;49.15;;;41.72;;
58657;SDS011;44428;45.630;13.786;2022-10-16T16:19:58;50.47;;;40.88;;
58657;SDS011;44428;45.630;13.786;2022-10-16T16:22:23;50.65;;;41.88;;
58657;SDS011;44428;45.630;13.786;2022-10-16T16:24:49;53.47;;;41.92;;
58657;SDS011;44428;45.630;13.786;2022-10-16T16:27:15;53.05;;;42.88;;
58657;SDS011;44428;45.630;13.786;2022-10-16T16:29:41;51.75;;;43.38;;
58657;SDS011;44428;45.630;13.786;2022-10-16T16:32:07;48.70;;;40.10;;
58657;SDS011;44428;45.630;13.786;2022-10-16T16:34:33;51.08;;;41.50;;
58657;SDS011;44428;45.630;13.786;2022-10-16T16:36:58;50.63;;;42.40;;
58657;SDS011;44428;45.630;13.786;2022-10-16T16:39:24;57.10;;;42.92;;
58657;SDS011;44428;45.630;13.786;2022-10-16T16:41:50;51.88;;;41.97;;
58657;SDS011;44428;45.630;13.786;2022-10-16T16:44:16;53.67;;;42.67;;
58657;SDS011;44428;45.630;13.786;2022-10-16T16:46:42;58.45;;;42.60;;
58657;SDS011;44428;45.630;13.786;2022-10-16T16:49:09;52.90;;;41.78;;